This is the latest recevied weather packets stored in our database for station/object WB0OCV. If no packets are shown the sender has not sent any weather packets the latest 10 day(s).
| Time | Temp. | Humidity | Pressure | Rain* | Wind** | Luminosity | Snow |
|---|---|---|---|---|---|---|---|
| 1778188675 | 17.78° C | 54% | 1007.6 hPa | 0 mm | - | 364 W/m² | - |
| 1778188371 | 17.22° C | 58% | 1007.4 hPa | 0 mm | - | 371 W/m² | - |
| 1778188068 | 17.22° C | 58% | 1007.4 hPa | 0 mm | - | 380 W/m² | - |
| 1778187765 | 17.22° C | 59% | 1007.4 hPa | 0 mm | - | 398 W/m² | - |
| 1778187462 | 17.78° C | 60% | 1007.6 hPa | 0 mm | - | 446 W/m² | - |
| 1778187159 | 17.78° C | 59% | 1007.7 hPa | 0 mm | - | 522 W/m² | - |
| 1778186855 | 17.22° C | 57% | 1007.6 hPa | 0 mm | - | 345 W/m² | - |
| 1778186553 | 16.67° C | 59% | 1007.4 hPa | 0 mm | - | 471 W/m² | - |
| 1778186250 | 16.67° C | 58% | 1007.5 hPa | 0 mm | - | 281 W/m² | - |
| 1778185948 | 17.78° C | 55% | 1007.4 hPa | 0 mm | - | 464 W/m² | - |
| 1778185644 | 17.78° C | 56% | 1007.5 hPa | 0 mm | - | 531 W/m² | - |
| 1778185340 | 17.78° C | 55% | 1007.5 hPa | 0 mm | - | 531 W/m² | - |
| 1778185035 | 17.22° C | 58% | 1007.3 hPa | 0 mm | - | 542 W/m² | - |
| 1778184732 | 17.22° C | 57% | 1007.4 hPa | 0 mm | - | 536 W/m² | - |
| 1778184428 | 17.22° C | 58% | 1007.6 hPa | 0 mm | - | 536 W/m² | - |
| 1778184124 | 17.78° C | 58% | 1007.3 hPa | 0 mm | - | 545 W/m² | - |
| 1778183821 | 17.78° C | 58% | 1007.5 hPa | 0 mm | - | 557 W/m² | - |
| 1778183518 | 17.78° C | 58% | 1007.5 hPa | 0 mm | - | 571 W/m² | - |
| 1778183215 | 17.22° C | 63% | 1007.4 hPa | 0 mm | - | 581 W/m² | - |
| 1778182911 | 17.22° C | 63% | 1007.9 hPa | 0 mm | - | 595 W/m² | - |
| 1778182608 | 17.22° C | 65% | 1007.9 hPa | 0 mm | - | 604 W/m² | - |
| 1778182305 | 16.67° C | 65% | 1007.8 hPa | 0 mm | - | 616 W/m² | - |
| 1778182000 | 17.22° C | 66% | 1007.7 hPa | 0 mm | - | 627 W/m² | - |
| 1778181698 | 17.22° C | 66% | 1007.8 hPa | 0 mm | - | 638 W/m² | - |
| 1778181393 | 18.33° C | 63% | 1008 hPa | 0 mm | - | 652 W/m² | - |
* Rain latest hour (hover to see other rain measurements)
** Current wind speed in m/s (hover to see current wind gust speed)